createdAt,value
2022-08-31T00:00:28.432Z,96593.25
2022-08-31T00:03:13.869Z,96584.78
2022-08-31T00:05:43.419Z,96584.50
2022-08-31T00:08:11.639Z,96575.91
2022-08-31T00:10:41.511Z,96576.47
2022-08-31T00:13:13.855Z,96570.50
2022-08-31T00:15:43.051Z,96581.88
2022-08-31T00:18:11.688Z,96575.09
2022-08-31T00:20:39.711Z,96587.25
2022-08-31T00:23:11.292Z,96583.72
2022-08-31T00:25:41.432Z,96584.53
2022-08-31T00:28:10.204Z,96582.66
2022-08-31T00:30:38.492Z,96581.34
2022-08-31T00:33:06.594Z,96571.03
2022-08-31T00:35:36.717Z,96569.16
2022-08-31T00:38:05.033Z,96574.25
2022-08-31T00:40:38.159Z,96567.19
2022-08-31T00:43:12.758Z,96565.13
2022-08-31T00:45:40.699Z,96570.47
2022-08-31T00:48:08.588Z,96563.69
2022-08-31T00:50:36.436Z,96567.78
2022-08-31T00:53:05.410Z,96571.53
2022-08-31T00:55:38.077Z,96573.44
2022-08-31T00:58:10.093Z,96568.34
2022-08-31T01:00:38.452Z,96565.09
2022-08-31T01:03:08.123Z,96562.28
2022-08-31T01:05:37.504Z,96561.75
2022-08-31T01:08:07.009Z,96568.78
2022-08-31T01:10:40.093Z,96564.94
2022-08-31T01:13:09.098Z,96556.84
2022-08-31T01:15:38.792Z,96560.38
2022-08-31T01:18:08.300Z,96564.47
2022-08-31T01:20:49.161Z,96567.69
2022-08-31T01:23:22.500Z,96567.19
2022-08-31T01:25:52.604Z,96565.81
2022-08-31T01:28:20.851Z,96566.66
2022-08-31T01:31:00.260Z,96575.06
2022-08-31T01:33:28.654Z,96580.25
2022-08-31T01:35:57.214Z,96578.63
2022-08-31T01:38:26.803Z,96589.44
2022-08-31T01:40:57.702Z,96589.47
2022-08-31T01:43:26.500Z,96592.13
2022-08-31T01:45:54.494Z,96591.06
2022-08-31T01:48:23.598Z,96595.06
2022-08-31T01:50:51.384Z,96589.34
2022-08-31T01:53:19.413Z,96596.94
2022-08-31T01:55:48.788Z,96589.91
2022-08-31T01:58:16.679Z,96590.19
2022-08-31T02:00:45.537Z,96597.53
2022-08-31T02:03:13.541Z,96597.25
2022-08-31T02:05:42.012Z,96600.84
2022-08-31T02:08:11.757Z,96605.44
2022-08-31T02:10:39.751Z,96607.31
2022-08-31T02:13:08.996Z,96600.84
2022-08-31T02:15:38.595Z,96604.59
2022-08-31T02:18:07.061Z,96606.25
2022-08-31T02:20:35.420Z,96603.25
2022-08-31T02:23:03.533Z,96600.31
2022-08-31T02:25:31.868Z,96610.00
2022-08-31T02:27:59.660Z,96608.38
2022-08-31T02:30:29.266Z,96601.38
2022-08-31T02:32:57.091Z,96613.59
2022-08-31T02:35:25.281Z,96616.03
2022-08-31T02:37:53.036Z,96619.00
2022-08-31T02:40:20.946Z,96607.94
2022-08-31T02:42:52.898Z,96610.38
2022-08-31T02:45:22.322Z,96610.63
2022-08-31T02:47:52.173Z,96609.50
2022-08-31T02:50:20.055Z,96613.81
2022-08-31T02:52:47.956Z,96612.47
2022-08-31T02:55:16.142Z,96613.84
2022-08-31T02:57:43.871Z,96613.84
2022-08-31T03:00:13.449Z,96610.03
2022-08-31T03:02:41.468Z,96611.38
2022-08-31T03:05:11.692Z,96610.06
2022-08-31T03:07:39.700Z,96607.94
2022-08-31T03:10:11.510Z,96604.13
2022-08-31T03:12:39.702Z,96609.22
2022-08-31T03:15:09.416Z,96621.69
2022-08-31T03:17:37.673Z,96612.22
2022-08-31T03:20:07.238Z,96614.38
2022-08-31T03:22:36.421Z,96611.97
2022-08-31T03:25:06.052Z,96617.41
2022-08-31T03:27:34.353Z,96610.41
2022-08-31T03:30:02.149Z,96612.78
2022-08-31T03:32:30.922Z,96613.84
2022-08-31T03:35:01.291Z,96613.88
2022-08-31T03:37:29.431Z,96614.69
2022-08-31T03:39:58.991Z,96620.09
2022-08-31T03:42:27.574Z,96615.78
2022-08-31T03:44:56.537Z,96616.06
2022-08-31T03:47:24.318Z,96621.47
2022-08-31T03:49:56.346Z,96618.22
2022-08-31T03:52:24.102Z,96615.53
2022-08-31T03:54:51.828Z,96618.50
2022-08-31T03:57:21.120Z,96616.59
2022-08-31T03:59:48.928Z,96614.97
2022-08-31T04:02:16.750Z,96618.19
2022-08-31T04:04:44.519Z,96620.97
2022-08-31T04:07:16.504Z,96618.25
2022-08-31T04:09:45.118Z,96548.50
2022-08-31T04:12:12.945Z,96609.06
2022-08-31T04:14:42.326Z,96625.81
2022-08-31T04:17:11.181Z,96621.75
2022-08-31T04:19:41.061Z,96629.31
2022-08-31T04:22:09.530Z,96624.72
2022-08-31T04:24:37.491Z,96613.91
2022-08-31T04:27:05.802Z,96613.38
2022-08-31T04:29:33.619Z,96619.03
2022-08-31T04:32:02.788Z,96622.56
2022-08-31T04:34:30.546Z,96623.63
2022-08-31T04:36:58.394Z,96625.50
2022-08-31T04:39:26.158Z,96620.97
2022-08-31T04:42:00.859Z,96621.19
2022-08-31T04:44:28.725Z,96619.53
2022-08-31T04:46:56.551Z,96623.09
2022-08-31T04:49:25.706Z,96621.75
2022-08-31T04:51:53.457Z,96622.03
2022-08-31T04:54:21.341Z,96633.66
2022-08-31T04:56:49.377Z,96633.41
2022-08-31T04:59:18.946Z,96631.53
2022-08-31T05:01:47.040Z,96640.41
2022-08-31T05:04:17.023Z,96647.69
2022-08-31T05:06:47.819Z,96648.53
2022-08-31T05:09:19.017Z,96644.22
2022-08-31T05:11:47.114Z,96630.97
2022-08-31T05:14:14.946Z,96642.59
2022-08-31T05:16:43.717Z,96628.25
2022-08-31T05:19:11.788Z,96621.75
2022-08-31T05:21:41.253Z,96627.44
2022-08-31T05:24:12.562Z,96629.28
2022-08-31T05:26:44.431Z,96631.16
2022-08-31T05:29:15.290Z,96637.13
2022-08-31T05:31:47.085Z,96638.72
2022-08-31T05:34:17.822Z,96649.00
2022-08-31T05:36:47.427Z,96639.28
2022-08-31T05:39:16.931Z,96626.28
2022-08-31T05:41:46.697Z,96640.31
2022-08-31T05:44:15.386Z,96638.44
2022-08-31T05:46:43.715Z,96644.66
2022-08-31T05:49:11.838Z,96647.63
2022-08-31T05:51:40.357Z,96637.09
2022-08-31T05:54:10.781Z,96649.25
2022-08-31T05:56:41.890Z,96647.69
2022-08-31T05:59:10.597Z,96658.16
2022-08-31T06:01:41.079Z,96657.38
2022-08-31T06:04:10.428Z,96658.75
2022-08-31T06:06:39.280Z,96651.97
2022-08-31T06:09:08.613Z,96664.69
2022-08-31T06:11:40.464Z,96654.72
2022-08-31T06:14:10.902Z,96660.88
2022-08-31T06:16:40.376Z,96656.56
2022-08-31T06:19:08.685Z,96651.16
2022-08-31T06:21:39.792Z,96671.19
2022-08-31T06:24:18.452Z,96666.03
2022-08-31T06:26:58.471Z,96669.84
2022-08-31T06:29:31.601Z,96662.25
2022-08-31T06:32:00.446Z,96666.31
2022-08-31T06:34:29.474Z,96664.16
2022-08-31T06:36:57.218Z,96668.78
2022-08-31T06:39:25.322Z,96667.69
2022-08-31T06:41:54.077Z,96679.28
2022-08-31T06:44:22.595Z,96684.13
2022-08-31T06:46:52.455Z,96686.31
2022-08-31T06:49:20.929Z,96689.00
2022-08-31T06:51:48.924Z,96686.31
2022-08-31T06:54:29.463Z,96688.47
2022-08-31T06:56:59.395Z,96689.03
2022-08-31T06:59:29.135Z,96690.09
2022-08-31T07:01:59.857Z,96686.59
2022-08-31T07:04:28.726Z,96695.22
2022-08-31T07:06:56.502Z,96697.16
2022-08-31T07:09:25.085Z,96697.16
2022-08-31T07:11:53.627Z,96705.53
2022-08-31T07:14:24.843Z,96705.25
2022-08-31T07:16:54.289Z,96712.81
2022-08-31T07:19:24.409Z,96706.31
2022-08-31T07:21:54.532Z,96708.97
2022-08-31T07:24:24.333Z,96701.97
2022-08-31T07:26:54.509Z,96695.16
2022-08-31T07:29:23.910Z,96707.59
2022-08-31T07:31:53.025Z,96708.16
2022-08-31T07:34:25.670Z,96710.06
2022-08-31T07:37:20.689Z,96712.22
2022-08-31T07:40:07.815Z,96708.16
2022-08-31T07:42:39.172Z,96697.06
2022-08-31T07:45:11.648Z,96700.31
2022-08-31T07:47:46.079Z,96710.03
2022-08-31T07:50:15.067Z,96721.31
2022-08-31T07:52:47.283Z,96717.88
2022-08-31T07:55:17.943Z,96719.22
2022-08-31T07:57:46.358Z,96714.13
2022-08-31T08:00:21.045Z,96717.09
2022-08-31T08:02:52.842Z,96726.75
2022-08-31T08:05:27.416Z,96713.25
2022-08-31T08:08:09.323Z,96723.56
2022-08-31T08:10:52.314Z,96727.56
2022-08-31T08:13:21.095Z,96721.13
2022-08-31T08:15:50.774Z,96730.63
2022-08-31T08:18:20.761Z,96733.34
2022-08-31T08:20:49.438Z,96721.69
2022-08-31T08:23:28.218Z,96726.28
2022-08-31T08:26:01.601Z,96741.94
2022-08-31T08:28:45.970Z,96746.84
2022-08-31T08:31:19.158Z,96740.31
2022-08-31T08:33:47.418Z,96748.97
2022-08-31T08:36:18.151Z,96751.16
2022-08-31T08:38:48.925Z,96749.50
2022-08-31T08:41:20.020Z,96752.72
2022-08-31T08:43:52.435Z,96748.66
2022-08-31T08:46:36.844Z,96732.44
2022-08-31T08:49:15.652Z,96743.06
2022-08-31T08:51:44.768Z,96756.59
2022-08-31T08:54:19.528Z,96756.81
2022-08-31T08:56:49.194Z,96758.19
2022-08-31T08:59:20.060Z,96764.16
2022-08-31T09:01:53.028Z,96756.59
2022-08-31T09:04:35.369Z,96757.19
2022-08-31T09:07:22.911Z,96756.59
2022-08-31T09:10:02.256Z,96768.25
2022-08-31T09:12:42.962Z,96766.31
2022-08-31T09:15:49.408Z,96764.50
2022-08-31T09:18:33.606Z,96761.00
2022-08-31T09:21:10.072Z,96762.31
2022-08-31T09:23:49.209Z,96772.91
2022-08-31T09:26:20.050Z,96771.56
2022-08-31T09:28:49.365Z,96755.50
2022-08-31T09:31:34.778Z,96768.22
2022-08-31T09:34:03.902Z,96770.41
2022-08-31T09:36:41.114Z,96769.91
2022-08-31T09:39:24.950Z,96742.03
2022-08-31T09:42:03.376Z,96775.53
2022-08-31T09:44:35.249Z,96766.41
2022-08-31T09:47:06.797Z,96764.78
2022-08-31T09:49:37.744Z,96768.63
2022-08-31T09:52:21.867Z,96765.34
2022-08-31T09:55:13.762Z,96755.88
2022-08-31T09:57:54.112Z,96761.03
2022-08-31T10:00:38.904Z,96766.44
2022-08-31T10:03:19.767Z,96764.78
2022-08-31T10:05:50.551Z,96757.50
2022-08-31T10:08:42.290Z,96752.03
2022-08-31T10:11:15.745Z,96749.84
2022-08-31T10:13:57.193Z,96754.44
2022-08-31T10:16:30.495Z,96746.13
2022-08-31T10:19:04.170Z,96751.28
2022-08-31T10:21:43.954Z,96750.34
2022-08-31T10:24:21.774Z,96729.59
2022-08-31T10:26:57.092Z,96757.38
2022-08-31T10:29:33.541Z,96743.50
2022-08-31T10:32:06.097Z,96751.31
2022-08-31T10:34:58.306Z,96759.81
2022-08-31T10:37:36.725Z,96765.25
2022-08-31T10:40:09.862Z,96770.69
2022-08-31T10:42:42.517Z,96766.34
2022-08-31T10:45:18.794Z,96769.59
2022-08-31T10:47:49.539Z,96766.94
2022-08-31T10:50:28.568Z,96761.53
2022-08-31T10:53:09.123Z,96766.94
2022-08-31T10:55:48.644Z,96759.09
2022-08-31T10:58:25.828Z,96745.84
2022-08-31T11:00:59.453Z,96746.56
2022-08-31T11:03:43.472Z,96748.09
2022-08-31T11:06:25.242Z,96744.97
2022-08-31T11:09:03.020Z,96741.59
2022-08-31T11:11:43.393Z,96739.25
2022-08-31T11:14:49.872Z,96727.28
2022-08-31T11:17:40.132Z,96732.03
2022-08-31T11:20:42.979Z,96727.34
2022-08-31T11:23:29.859Z,96723.66
2022-08-31T11:26:46.152Z,96725.75
2022-08-31T11:29:29.247Z,96725.47
2022-08-31T11:32:01.876Z,96718.63
2022-08-31T11:34:47.138Z,96719.47
2022-08-31T11:37:55.769Z,96720.94
2022-08-31T11:41:10.912Z,96716.22
2022-08-31T11:43:51.963Z,96716.53
2022-08-31T11:46:43.123Z,96710.88
2022-08-31T11:49:11.917Z,96707.25
2022-08-31T11:51:48.152Z,96693.66
2022-08-31T11:54:42.019Z,96692.28
2022-08-31T11:57:15.666Z,96704.31
2022-08-31T11:59:45.988Z,96696.22
2022-08-31T12:02:44.748Z,96689.19
2022-08-31T12:05:13.546Z,96689.22
2022-08-31T12:07:46.319Z,96686.00
2022-08-31T12:10:46.442Z,96700.03
2022-08-31T12:13:42.341Z,96702.75
2022-08-31T12:16:22.809Z,96708.00
2022-08-31T12:19:08.256Z,96690.81
2022-08-31T12:22:02.738Z,96699.50
2022-08-31T12:24:40.654Z,96704.84
2022-08-31T12:27:27.527Z,96704.34
2022-08-31T12:30:20.108Z,96694.06
2022-08-31T12:32:59.171Z,96704.81
2022-08-31T12:35:30.150Z,96697.06
2022-08-31T12:38:00.383Z,96701.22
2022-08-31T12:40:31.267Z,96699.03
2022-08-31T12:43:06.853Z,96707.19
2022-08-31T12:46:07.221Z,96703.16
2022-08-31T12:48:46.970Z,96693.41
2022-08-31T12:51:24.146Z,96699.09
2022-08-31T12:54:09.003Z,96694.19
2022-08-31T12:56:45.441Z,96693.63
2022-08-31T12:59:45.665Z,96687.53
2022-08-31T13:02:16.574Z,96690.25
2022-08-31T13:04:46.319Z,96680.28
2022-08-31T13:07:16.229Z,96683.50
2022-08-31T13:09:45.855Z,96672.19
2022-08-31T13:12:23.896Z,96682.22
2022-08-31T13:14:51.624Z,96678.25
2022-08-31T13:17:21.914Z,96677.09
2022-08-31T13:19:52.678Z,96679.84
2022-08-31T13:22:28.851Z,96666.34
2022-08-31T13:25:10.577Z,96673.31
2022-08-31T13:27:48.235Z,96669.00
2022-08-31T13:30:19.686Z,96657.13
2022-08-31T13:32:51.395Z,96670.00
2022-08-31T13:35:20.077Z,96656.63
2022-08-31T13:38:03.870Z,96662.56
2022-08-31T13:40:35.505Z,96656.75
2022-08-31T13:43:07.501Z,96656.66
2022-08-31T13:45:40.404Z,96657.72
2022-08-31T13:48:14.922Z,96656.00
2022-08-31T13:50:52.312Z,96657.06
2022-08-31T13:53:39.644Z,96657.25
2022-08-31T13:56:44.164Z,96656.00
2022-08-31T13:59:26.559Z,96647.69
2022-08-31T14:01:56.706Z,96650.44
2022-08-31T14:05:00.690Z,96655.69
2022-08-31T14:07:32.570Z,96651.97
2022-08-31T14:10:01.565Z,96654.38
2022-08-31T14:12:36.266Z,96641.34
2022-08-31T14:15:18.533Z,96657.63
2022-08-31T14:20:53.407Z,96662.84
2022-08-31T14:23:33.037Z,96651.88
2022-08-31T14:26:02.925Z,96663.47
2022-08-31T14:28:41.781Z,96650.06
2022-08-31T14:31:22.897Z,96664.84
2022-08-31T14:33:55.981Z,96669.53
2022-08-31T14:36:26.375Z,96660.13
2022-08-31T14:38:55.168Z,96665.19
2022-08-31T14:41:30.992Z,96661.75
2022-08-31T14:44:06.858Z,96657.94
2022-08-31T14:46:38.682Z,96650.00
2022-08-31T14:49:07.256Z,96657.88
2022-08-31T14:51:39.109Z,96650.16
2022-08-31T14:54:07.395Z,96652.03
2022-08-31T14:56:39.099Z,96637.94
2022-08-31T14:59:16.150Z,96647.72
2022-08-31T15:01:46.220Z,96649.53
2022-08-31T15:04:16.456Z,96645.94
2022-08-31T15:06:49.219Z,96651.50
2022-08-31T15:09:17.109Z,96650.25
2022-08-31T15:11:45.149Z,96652.50
2022-08-31T15:14:13.914Z,96649.66
2022-08-31T15:16:43.602Z,96655.09
2022-08-31T15:19:14.180Z,96647.78
2022-08-31T15:21:52.241Z,96647.31
2022-08-31T15:24:23.342Z,96646.59
2022-08-31T15:26:53.323Z,96652.19
2022-08-31T15:29:24.883Z,96633.03
2022-08-31T15:31:55.052Z,96644.91
2022-08-31T15:34:26.554Z,96643.16
2022-08-31T15:36:56.180Z,96643.94
2022-08-31T15:39:24.772Z,96643.97
2022-08-31T15:41:52.511Z,96637.03
2022-08-31T15:44:20.747Z,96647.28
2022-08-31T15:47:06.333Z,96646.56
2022-08-31T15:49:37.518Z,96636.94
2022-08-31T15:52:07.004Z,96629.59
2022-08-31T15:54:35.752Z,96626.06
2022-08-31T15:57:06.053Z,96625.66
2022-08-31T15:59:34.687Z,96620.41
2022-08-31T16:02:03.036Z,96621.44
2022-08-31T16:04:31.673Z,96622.56
2022-08-31T16:07:01.651Z,96621.06
2022-08-31T16:09:29.398Z,96617.78
2022-08-31T16:11:57.112Z,96614.41
2022-08-31T16:14:24.943Z,96608.59
2022-08-31T16:16:52.811Z,96609.84
2022-08-31T16:19:34.633Z,96609.72
2022-08-31T16:22:06.101Z,96608.84
2022-08-31T16:24:37.055Z,96602.53
2022-08-31T16:27:07.924Z,96602.75
2022-08-31T16:29:37.134Z,96605.38
2022-08-31T16:32:06.569Z,96604.00
2022-08-31T16:34:35.464Z,96598.22
2022-08-31T16:37:07.265Z,96598.47
2022-08-31T16:39:37.089Z,96593.47
2022-08-31T16:42:05.829Z,96596.78
2022-08-31T16:44:36.651Z,96589.81
2022-08-31T16:47:06.669Z,96585.31
2022-08-31T16:49:34.089Z,96580.28
2022-08-31T16:52:03.368Z,96591.06
2022-08-31T16:54:33.974Z,96588.31
2022-08-31T16:57:02.390Z,96590.69
2022-08-31T16:59:30.681Z,96589.94
2022-08-31T17:01:58.822Z,96595.50
2022-08-31T17:04:51.070Z,96591.25
2022-08-31T17:07:16.409Z,96576.84
2022-08-31T17:09:46.142Z,96591.47
2022-08-31T17:12:17.044Z,96583.16
2022-08-31T17:14:48.210Z,96587.50
2022-08-31T17:17:18.202Z,96585.78
2022-08-31T17:19:46.944Z,96573.16
2022-08-31T17:22:23.323Z,96590.94
2022-08-31T17:24:57.764Z,96589.88
2022-08-31T17:27:26.829Z,96590.94
2022-08-31T17:29:56.439Z,96589.72
2022-08-31T17:32:27.605Z,96589.06
2022-08-31T17:34:56.546Z,96584.47
2022-08-31T17:37:28.367Z,96573.91
2022-08-31T17:39:57.547Z,96593.47
2022-08-31T17:42:28.076Z,96593.66
2022-08-31T17:44:56.334Z,96605.06
2022-08-31T17:47:26.504Z,96590.63
2022-08-31T17:49:55.055Z,96597.78
2022-08-31T17:52:23.797Z,96592.34
2022-08-31T17:54:52.325Z,96586.72
2022-08-31T17:57:24.824Z,96598.59
2022-08-31T17:59:54.877Z,96599.00
2022-08-31T18:02:27.543Z,96606.06
2022-08-31T18:04:55.492Z,96612.03
2022-08-31T18:07:23.271Z,96614.03
2022-08-31T18:09:51.956Z,96600.84
2022-08-31T18:12:22.832Z,96618.38
2022-08-31T18:14:51.031Z,96615.38
2022-08-31T18:17:22.146Z,96620.78
2022-08-31T18:19:49.974Z,96622.50
2022-08-31T18:22:18.351Z,96625.53
2022-08-31T18:24:46.410Z,96626.41
2022-08-31T18:27:16.116Z,96617.75
2022-08-31T18:29:46.296Z,96626.44
2022-08-31T18:32:15.277Z,96626.16
2022-08-31T18:34:47.082Z,96633.44
2022-08-31T18:37:16.195Z,96629.19
2022-08-31T18:40:04.276Z,96627.03
2022-08-31T18:42:50.645Z,96626.72
2022-08-31T18:45:20.340Z,96608.66
2022-08-31T18:48:20.898Z,96610.84
2022-08-31T18:50:42.424Z,96626.50
2022-08-31T18:53:11.037Z,96630.00
2022-08-31T18:55:43.200Z,96630.25
2022-08-31T18:58:11.109Z,96631.88
2022-08-31T19:00:40.670Z,96635.13
2022-08-31T19:03:08.831Z,96638.88
2022-08-31T19:05:39.875Z,96638.34
2022-08-31T19:08:08.124Z,96638.91
2022-08-31T19:10:35.842Z,96630.56
2022-08-31T19:13:07.697Z,96635.97
2022-08-31T19:15:41.063Z,96626.25
2022-08-31T19:18:09.166Z,96627.59
2022-08-31T19:20:36.904Z,96627.84
2022-08-31T19:23:04.693Z,96623.81
2022-08-31T19:25:32.897Z,96626.50
2022-08-31T19:28:01.616Z,96619.50
2022-08-31T19:30:30.186Z,96615.19
2022-08-31T19:32:59.340Z,96621.19
2022-08-31T19:35:27.480Z,96627.44
2022-08-31T19:37:56.664Z,96619.66
2022-08-31T19:40:43.020Z,96624.56
2022-08-31T19:46:15.935Z,96620.34
2022-08-31T19:48:46.085Z,96625.19
2022-08-31T19:51:15.525Z,96625.22
2022-08-31T19:53:44.859Z,96626.06
2022-08-31T19:56:14.670Z,96627.16
2022-08-31T19:58:42.804Z,96625.28
2022-08-31T20:01:11.305Z,96621.50
2022-08-31T20:03:40.793Z,96622.84
2022-08-31T20:06:13.335Z,96630.94
2022-08-31T20:08:42.097Z,96625.81
2022-08-31T20:11:11.057Z,96615.25
2022-08-31T20:13:41.141Z,96623.94
2022-08-31T20:16:09.808Z,96619.59
2022-08-31T20:18:38.261Z,96612.56
2022-08-31T20:21:17.303Z,96612.31
2022-08-31T20:23:48.826Z,96615.53
2022-08-31T20:26:18.901Z,96602.56
2022-08-31T20:28:46.770Z,96622.00
2022-08-31T20:31:16.603Z,96620.38
2022-08-31T20:33:45.498Z,96623.09
2022-08-31T20:36:18.939Z,96617.16
2022-08-31T20:38:49.084Z,96620.66
2022-08-31T20:41:17.284Z,96612.03
2022-08-31T20:43:45.138Z,96622.28
2022-08-31T20:46:34.480Z,96611.19
2022-08-31T20:49:19.711Z,96622.53
2022-08-31T20:51:47.581Z,96619.88
2022-08-31T20:54:17.369Z,96624.69
2022-08-31T20:56:45.675Z,96622.78
2022-08-31T20:59:13.526Z,96621.16
2022-08-31T21:01:41.678Z,96620.34
2022-08-31T21:04:09.617Z,96627.94
2022-08-31T21:06:37.912Z,96632.50
2022-08-31T21:09:06.673Z,96632.78
2022-08-31T21:11:40.581Z,96627.63
2022-08-31T21:14:08.938Z,96636.53
2022-08-31T21:16:36.766Z,96628.41
2022-08-31T21:19:07.424Z,96637.59
2022-08-31T21:21:35.316Z,96640.81
2022-08-31T21:24:03.389Z,96642.41
2022-08-31T21:26:31.142Z,96644.56
2022-08-31T21:29:00.702Z,96648.63
2022-08-31T21:31:29.513Z,96642.06
2022-08-31T21:33:59.403Z,96642.13
2022-08-31T21:36:28.458Z,96642.97
2022-08-31T21:38:57.928Z,96635.34
2022-08-31T21:41:28.271Z,96642.06
2022-08-31T21:43:58.193Z,96634.78
2022-08-31T21:46:29.318Z,96631.53
2022-08-31T21:48:59.311Z,96633.97
2022-08-31T21:51:29.534Z,96633.22
2022-08-31T21:53:59.622Z,96630.53
2022-08-31T21:56:29.910Z,96625.09
2022-08-31T21:58:58.502Z,96633.19
2022-08-31T22:01:29.914Z,96637.72
2022-08-31T22:03:59.423Z,96626.06
2022-08-31T22:06:31.511Z,96626.09
2022-08-31T22:09:00.470Z,96633.13
2022-08-31T22:11:30.005Z,96629.06
2022-08-31T22:13:59.792Z,96633.16
2022-08-31T22:16:29.225Z,96622.72
2022-08-31T22:19:01.225Z,96621.59
2022-08-31T22:21:32.246Z,96624.06
2022-08-31T22:24:03.155Z,96616.47
2022-08-31T22:26:34.905Z,96620.78
2022-08-31T22:29:02.709Z,96615.38
2022-08-31T22:31:32.896Z,96618.66
2022-08-31T22:34:00.749Z,96606.84
2022-08-31T22:36:32.371Z,96613.28
2022-08-31T22:39:03.117Z,96621.88
2022-08-31T22:41:31.759Z,96613.53
2022-08-31T22:44:00.435Z,96609.13
2022-08-31T22:46:28.443Z,96615.88
2022-08-31T22:48:58.531Z,96607.75
2022-08-31T22:51:26.259Z,96610.22
2022-08-31T22:53:54.273Z,96613.19
2022-08-31T22:56:25.894Z,96607.03
2022-08-31T22:58:55.204Z,96601.63
2022-08-31T23:01:25.674Z,96613.72
2022-08-31T23:03:55.148Z,96611.28
2022-08-31T23:06:26.776Z,96608.81
2022-08-31T23:08:56.491Z,96605.59
2022-08-31T23:11:26.235Z,96595.06
2022-08-31T23:13:56.673Z,96598.34
2022-08-31T23:16:27.014Z,96600.03
2022-08-31T23:18:57.647Z,96594.63
2022-08-31T23:21:29.510Z,96594.56
2022-08-31T23:23:57.960Z,96584.00
2022-08-31T23:26:27.520Z,96589.06
2022-08-31T23:28:55.764Z,96593.13
2022-08-31T23:31:24.322Z,96574.16
2022-08-31T23:33:53.495Z,96583.91
2022-08-31T23:36:26.162Z,96580.59
2022-08-31T23:38:56.693Z,96573.03
2022-08-31T23:41:26.562Z,96569.16
2022-08-31T23:43:56.738Z,96571.91
2022-08-31T23:46:25.087Z,96562.44
2022-08-31T23:48:54.216Z,96567.09
2022-08-31T23:51:24.458Z,96566.50
2022-08-31T23:53:55.251Z,96564.88
2022-08-31T23:56:32.648Z,96552.25
2022-08-31T23:59:02.010Z,96558.41
